sensor_id;sensor_type;location;lat;lon;timestamp;temperature;humidity
2543;DHT22;1116;51.502;7.414;2023-02-21T00:01:58;9.00;99.90
2543;DHT22;1116;51.502;7.414;2023-02-21T00:04:56;9.00;99.90
2543;DHT22;1116;51.502;7.414;2023-02-21T00:07:58;9.00;99.90
2543;DHT22;1116;51.502;7.414;2023-02-21T00:10:41;9.00;99.90
2543;DHT22;1116;51.502;7.414;2023-02-21T00:13:24;8.90;99.90
2543;DHT22;1116;51.502;7.414;2023-02-21T00:16:14;9.00;99.90
2543;DHT22;1116;51.502;7.414;2023-02-21T00:19:00;9.00;99.90
2543;DHT22;1116;51.502;7.414;2023-02-21T00:21:43;9.00;99.90
2543;DHT22;1116;51.502;7.414;2023-02-21T00:24:27;9.00;99.90
2543;DHT22;1116;51.502;7.414;2023-02-21T00:27:10;9.10;99.90
2543;DHT22;1116;51.502;7.414;2023-02-21T00:29:53;9.10;99.90
2543;DHT22;1116;51.502;7.414;2023-02-21T00:32:36;9.00;99.90
2543;DHT22;1116;51.502;7.414;2023-02-21T00:35:22;8.90;99.90
2543;DHT22;1116;51.502;7.414;2023-02-21T00:38:06;8.90;99.90
2543;DHT22;1116;51.502;7.414;2023-02-21T00:40:53;8.90;99.90
2543;DHT22;1116;51.502;7.414;2023-02-21T00:43:36;9.30;99.90
2543;DHT22;1116;51.502;7.414;2023-02-21T00:46:20;8.90;99.90
2543;DHT22;1116;51.502;7.414;2023-02-21T00:49:05;8.90;99.90
2543;DHT22;1116;51.502;7.414;2023-02-21T00:51:51;8.90;99.90
2543;DHT22;1116;51.502;7.414;2023-02-21T00:54:34;8.90;99.90
2543;DHT22;1116;51.502;7.414;2023-02-21T00:57:17;8.90;99.90
2543;DHT22;1116;51.502;7.414;2023-02-21T01:00:01;8.90;99.90
2543;DHT22;1116;51.502;7.414;2023-02-21T01:02:44;9.00;99.90
2543;DHT22;1116;51.502;7.414;2023-02-21T01:05:27;9.00;99.90
2543;DHT22;1116;51.502;7.414;2023-02-21T01:08:16;9.00;99.90
2543;DHT22;1116;51.502;7.414;2023-02-21T01:10:59;9.00;99.90
2543;DHT22;1116;51.502;7.414;2023-02-21T01:13:42;9.00;99.90
2543;DHT22;1116;51.502;7.414;2023-02-21T01:16:27;8.90;99.90
2543;DHT22;1116;51.502;7.414;2023-02-21T01:19:10;8.90;99.90
2543;DHT22;1116;51.502;7.414;2023-02-21T01:21:53;8.90;99.90
2543;DHT22;1116;51.502;7.414;2023-02-21T01:24:39;9.00;99.90
2543;DHT22;1116;51.502;7.414;2023-02-21T01:27:22;8.90;99.90
2543;DHT22;1116;51.502;7.414;2023-02-21T01:30:07;8.90;99.90
2543;DHT22;1116;51.502;7.414;2023-02-21T01:32:52;8.90;99.90
2543;DHT22;1116;51.502;7.414;2023-02-21T01:35:35;8.90;99.90
2543;DHT22;1116;51.502;7.414;2023-02-21T01:38:18;8.80;99.90
2543;DHT22;1116;51.502;7.414;2023-02-21T01:41:04;8.90;99.90
2543;DHT22;1116;51.502;7.414;2023-02-21T01:43:56;8.90;99.90
2543;DHT22;1116;51.502;7.414;2023-02-21T01:46:43;8.80;99.90
2543;DHT22;1116;51.502;7.414;2023-02-21T01:49:27;8.80;99.90
2543;DHT22;1116;51.502;7.414;2023-02-21T01:52:10;8.80;99.90
2543;DHT22;1116;51.502;7.414;2023-02-21T01:54:55;8.80;99.90
2543;DHT22;1116;51.502;7.414;2023-02-21T01:57:44;8.90;99.90
2543;DHT22;1116;51.502;7.414;2023-02-21T02:00:29;8.90;99.90
2543;DHT22;1116;51.502;7.414;2023-02-21T02:03:15;8.90;99.90
2543;DHT22;1116;51.502;7.414;2023-02-21T02:06:01;8.80;99.90
2543;DHT22;1116;51.502;7.414;2023-02-21T02:08:49;8.80;99.90
2543;DHT22;1116;51.502;7.414;2023-02-21T02:11:45;8.80;99.90
2543;DHT22;1116;51.502;7.414;2023-02-21T02:15:03;8.90;99.90
2543;DHT22;1116;51.502;7.414;2023-02-21T02:17:42;8.90;99.90
2543;DHT22;1116;51.502;7.414;2023-02-21T02:20:37;8.80;99.90
2543;DHT22;1116;51.502;7.414;2023-02-21T02:23:33;8.70;99.90
2543;DHT22;1116;51.502;7.414;2023-02-21T02:29:19;8.80;99.90
2543;DHT22;1116;51.502;7.414;2023-02-21T02:35:10;8.70;99.90
2543;DHT22;1116;51.502;7.414;2023-02-21T02:37:47;8.70;99.90
2543;DHT22;1116;51.502;7.414;2023-02-21T02:40:26;8.70;99.90
2543;DHT22;1116;51.502;7.414;2023-02-21T02:43:02;8.90;99.90
2543;DHT22;1116;51.502;7.414;2023-02-21T02:45:42;8.60;99.90
2543;DHT22;1116;51.502;7.414;2023-02-21T02:48:19;8.60;99.90
2543;DHT22;1116;51.502;7.414;2023-02-21T02:50:53;8.60;99.90
2543;DHT22;1116;51.502;7.414;2023-02-21T02:53:26;8.60;99.90
2543;DHT22;1116;51.502;7.414;2023-02-21T02:56:00;8.60;99.90
2543;DHT22;1116;51.502;7.414;2023-02-21T02:58:34;8.70;99.90
2543;DHT22;1116;51.502;7.414;2023-02-21T03:01:19;8.70;99.90
2543;DHT22;1116;51.502;7.414;2023-02-21T03:04:05;8.80;99.90
2543;DHT22;1116;51.502;7.414;2023-02-21T03:06:53;8.80;99.90
2543;DHT22;1116;51.502;7.414;2023-02-21T03:09:32;8.80;99.90
2543;DHT22;1116;51.502;7.414;2023-02-21T03:12:14;8.80;99.90
2543;DHT22;1116;51.502;7.414;2023-02-21T03:14:52;8.80;99.90
2543;DHT22;1116;51.502;7.414;2023-02-21T03:17:31;8.80;99.90
2543;DHT22;1116;51.502;7.414;2023-02-21T03:20:04;8.80;99.90
2543;DHT22;1116;51.502;7.414;2023-02-21T03:22:41;8.80;99.90
2543;DHT22;1116;51.502;7.414;2023-02-21T03:25:13;8.70;99.90
2543;DHT22;1116;51.502;7.414;2023-02-21T03:27:49;8.70;99.90
2543;DHT22;1116;51.502;7.414;2023-02-21T03:30:21;8.70;99.90
2543;DHT22;1116;51.502;7.414;2023-02-21T03:32:53;8.80;99.90
2543;DHT22;1116;51.502;7.414;2023-02-21T03:35:27;8.80;99.90
2543;DHT22;1116;51.502;7.414;2023-02-21T03:38:01;8.80;99.90
2543;DHT22;1116;51.502;7.414;2023-02-21T03:40:33;8.90;99.90
2543;DHT22;1116;51.502;7.414;2023-02-21T03:43:06;8.90;99.90
2543;DHT22;1116;51.502;7.414;2023-02-21T03:45:37;8.80;99.90
2543;DHT22;1116;51.502;7.414;2023-02-21T03:48:08;8.80;99.90
2543;DHT22;1116;51.502;7.414;2023-02-21T03:50:42;8.80;99.90
2543;DHT22;1116;51.502;7.414;2023-02-21T03:53:16;8.80;99.90
2543;DHT22;1116;51.502;7.414;2023-02-21T03:55:47;8.80;99.90
2543;DHT22;1116;51.502;7.414;2023-02-21T03:58:19;8.80;99.90
2543;DHT22;1116;51.502;7.414;2023-02-21T04:00:50;8.80;99.90
2543;DHT22;1116;51.502;7.414;2023-02-21T04:03:21;8.70;99.90
2543;DHT22;1116;51.502;7.414;2023-02-21T04:05:52;8.70;99.90
2543;DHT22;1116;51.502;7.414;2023-02-21T04:08:25;8.70;99.90
2543;DHT22;1116;51.502;7.414;2023-02-21T04:10:58;8.70;99.90
2543;DHT22;1116;51.502;7.414;2023-02-21T04:13:32;8.70;99.90
2543;DHT22;1116;51.502;7.414;2023-02-21T04:16:04;8.70;99.90
2543;DHT22;1116;51.502;7.414;2023-02-21T04:18:35;8.80;99.90
2543;DHT22;1116;51.502;7.414;2023-02-21T04:21:07;8.80;99.90
2543;DHT22;1116;51.502;7.414;2023-02-21T04:23:41;8.70;99.90
2543;DHT22;1116;51.502;7.414;2023-02-21T04:26:11;8.70;99.90
2543;DHT22;1116;51.502;7.414;2023-02-21T04:28:42;8.70;99.90
2543;DHT22;1116;51.502;7.414;2023-02-21T04:31:13;8.70;99.90
2543;DHT22;1116;51.502;7.414;2023-02-21T04:33:45;8.70;99.90
2543;DHT22;1116;51.502;7.414;2023-02-21T04:36:21;8.70;99.90
2543;DHT22;1116;51.502;7.414;2023-02-21T04:38:54;8.70;99.90
2543;DHT22;1116;51.502;7.414;2023-02-21T04:41:25;8.70;99.90
2543;DHT22;1116;51.502;7.414;2023-02-21T04:43:56;8.70;99.90
2543;DHT22;1116;51.502;7.414;2023-02-21T04:46:27;8.80;99.90
2543;DHT22;1116;51.502;7.414;2023-02-21T04:48:58;8.70;99.90
2543;DHT22;1116;51.502;7.414;2023-02-21T04:51:29;8.70;99.90
2543;DHT22;1116;51.502;7.414;2023-02-21T04:54:05;8.70;99.90
2543;DHT22;1116;51.502;7.414;2023-02-21T04:56:36;8.70;99.90
2543;DHT22;1116;51.502;7.414;2023-02-21T04:59:09;8.80;99.90
2543;DHT22;1116;51.502;7.414;2023-02-21T05:01:40;8.80;99.90
2543;DHT22;1116;51.502;7.414;2023-02-21T05:04:11;8.70;99.90
2543;DHT22;1116;51.502;7.414;2023-02-21T05:06:43;8.70;99.90
2543;DHT22;1116;51.502;7.414;2023-02-21T05:09:17;8.80;99.90
2543;DHT22;1116;51.502;7.414;2023-02-21T05:11:48;8.80;99.90
2543;DHT22;1116;51.502;7.414;2023-02-21T05:14:18;8.80;99.90
2543;DHT22;1116;51.502;7.414;2023-02-21T05:16:52;8.70;99.90
2543;DHT22;1116;51.502;7.414;2023-02-21T05:19:24;8.80;99.90
2543;DHT22;1116;51.502;7.414;2023-02-21T05:21:58;8.80;99.90
2543;DHT22;1116;51.502;7.414;2023-02-21T05:24:33;8.70;99.90
2543;DHT22;1116;51.502;7.414;2023-02-21T05:27:05;8.80;99.90
2543;DHT22;1116;51.502;7.414;2023-02-21T05:29:38;8.80;99.90
2543;DHT22;1116;51.502;7.414;2023-02-21T05:32:09;8.70;99.90
2543;DHT22;1116;51.502;7.414;2023-02-21T05:34:39;8.70;99.90
2543;DHT22;1116;51.502;7.414;2023-02-21T05:37:11;8.80;99.90
2543;DHT22;1116;51.502;7.414;2023-02-21T05:39:45;8.80;99.90
2543;DHT22;1116;51.502;7.414;2023-02-21T05:42:16;8.90;99.90
2543;DHT22;1116;51.502;7.414;2023-02-21T05:44:47;8.90;99.90
2543;DHT22;1116;51.502;7.414;2023-02-21T05:47:18;8.90;99.90
2543;DHT22;1116;51.502;7.414;2023-02-21T05:49:48;8.90;99.90
2543;DHT22;1116;51.502;7.414;2023-02-21T05:52:19;9.00;99.90
2543;DHT22;1116;51.502;7.414;2023-02-21T05:54:53;9.00;99.90
2543;DHT22;1116;51.502;7.414;2023-02-21T05:57:23;8.90;99.90
2543;DHT22;1116;51.502;7.414;2023-02-21T05:59:54;9.00;99.90
2543;DHT22;1116;51.502;7.414;2023-02-21T06:02:25;8.90;99.90
2543;DHT22;1116;51.502;7.414;2023-02-21T06:04:56;8.90;99.90
2543;DHT22;1116;51.502;7.414;2023-02-21T06:07:27;8.90;99.90
2543;DHT22;1116;51.502;7.414;2023-02-21T06:10:00;9.00;99.90
2543;DHT22;1116;51.502;7.414;2023-02-21T06:12:31;8.90;99.90
2543;DHT22;1116;51.502;7.414;2023-02-21T06:15:05;8.90;99.90
2543;DHT22;1116;51.502;7.414;2023-02-21T06:17:37;8.90;99.90
2543;DHT22;1116;51.502;7.414;2023-02-21T06:20:11;8.80;99.90
2543;DHT22;1116;51.502;7.414;2023-02-21T06:22:43;8.80;99.90
2543;DHT22;1116;51.502;7.414;2023-02-21T06:25:20;8.80;99.90
2543;DHT22;1116;51.502;7.414;2023-02-21T06:27:53;8.80;99.90
2543;DHT22;1116;51.502;7.414;2023-02-21T06:30:25;8.70;99.90
2543;DHT22;1116;51.502;7.414;2023-02-21T06:32:56;8.70;99.90
2543;DHT22;1116;51.502;7.414;2023-02-21T06:35:27;8.90;99.90
2543;DHT22;1116;51.502;7.414;2023-02-21T06:37:58;8.90;99.90
2543;DHT22;1116;51.502;7.414;2023-02-21T06:40:31;8.80;99.90
2543;DHT22;1116;51.502;7.414;2023-02-21T06:43:02;8.90;99.90
2543;DHT22;1116;51.502;7.414;2023-02-21T06:45:35;8.90;99.90
2543;DHT22;1116;51.502;7.414;2023-02-21T06:48:06;8.90;99.90
2543;DHT22;1116;51.502;7.414;2023-02-21T06:50:37;8.90;99.90
2543;DHT22;1116;51.502;7.414;2023-02-21T06:53:08;8.90;99.90
2543;DHT22;1116;51.502;7.414;2023-02-21T06:55:44;8.90;99.90
2543;DHT22;1116;51.502;7.414;2023-02-21T06:58:15;8.90;99.90
2543;DHT22;1116;51.502;7.414;2023-02-21T07:00:45;8.80;99.90
2543;DHT22;1116;51.502;7.414;2023-02-21T07:03:16;8.80;99.90
2543;DHT22;1116;51.502;7.414;2023-02-21T07:05:51;8.80;99.90
2543;DHT22;1116;51.502;7.414;2023-02-21T07:08:22;8.90;99.90
2543;DHT22;1116;51.502;7.414;2023-02-21T07:10:55;8.90;99.90
2543;DHT22;1116;51.502;7.414;2023-02-21T07:13:26;8.90;99.90
2543;DHT22;1116;51.502;7.414;2023-02-21T07:15:58;8.90;99.90
2543;DHT22;1116;51.502;7.414;2023-02-21T07:18:29;8.90;99.90
2543;DHT22;1116;51.502;7.414;2023-02-21T07:21:00;8.90;99.90
2543;DHT22;1116;51.502;7.414;2023-02-21T07:23:31;8.90;99.90
2543;DHT22;1116;51.502;7.414;2023-02-21T07:26:04;8.90;99.90
2543;DHT22;1116;51.502;7.414;2023-02-21T07:28:38;9.00;99.90
2543;DHT22;1116;51.502;7.414;2023-02-21T07:31:09;9.00;99.90
2543;DHT22;1116;51.502;7.414;2023-02-21T07:33:46;9.10;99.90
2543;DHT22;1116;51.502;7.414;2023-02-21T07:36:17;8.90;99.90
2543;DHT22;1116;51.502;7.414;2023-02-21T07:38:50;8.90;99.90
2543;DHT22;1116;51.502;7.414;2023-02-21T07:41:26;8.90;99.90
2543;DHT22;1116;51.502;7.414;2023-02-21T07:43:57;9.00;99.90
2543;DHT22;1116;51.502;7.414;2023-02-21T07:46:28;8.90;99.90
2543;DHT22;1116;51.502;7.414;2023-02-21T07:49:00;9.00;99.90
2543;DHT22;1116;51.502;7.414;2023-02-21T07:51:31;9.00;99.90
2543;DHT22;1116;51.502;7.414;2023-02-21T07:54:03;9.00;99.90
2543;DHT22;1116;51.502;7.414;2023-02-21T07:56:41;8.90;99.90
2543;DHT22;1116;51.502;7.414;2023-02-21T07:59:13;9.00;99.90
2543;DHT22;1116;51.502;7.414;2023-02-21T08:01:44;9.10;99.90
2543;DHT22;1116;51.502;7.414;2023-02-21T08:04:17;9.00;99.90
2543;DHT22;1116;51.502;7.414;2023-02-21T08:06:50;9.00;99.90
2543;DHT22;1116;51.502;7.414;2023-02-21T08:09:21;9.00;99.90
2543;DHT22;1116;51.502;7.414;2023-02-21T08:11:55;9.00;99.90
2543;DHT22;1116;51.502;7.414;2023-02-21T08:14:26;9.10;99.90
2543;DHT22;1116;51.502;7.414;2023-02-21T08:16:56;9.00;99.90
2543;DHT22;1116;51.502;7.414;2023-02-21T08:19:27;9.00;99.90
2543;DHT22;1116;51.502;7.414;2023-02-21T08:21:58;9.30;99.90
2543;DHT22;1116;51.502;7.414;2023-02-21T08:24:29;9.00;99.90
2543;DHT22;1116;51.502;7.414;2023-02-21T08:27:02;9.00;99.90
2543;DHT22;1116;51.502;7.414;2023-02-21T08:29:33;9.10;99.90
2543;DHT22;1116;51.502;7.414;2023-02-21T08:32:04;9.00;99.90
2543;DHT22;1116;51.502;7.414;2023-02-21T08:34:35;9.00;99.90
2543;DHT22;1116;51.502;7.414;2023-02-21T08:37:06;9.00;99.90
2543;DHT22;1116;51.502;7.414;2023-02-21T08:39:44;8.90;99.90
2543;DHT22;1116;51.502;7.414;2023-02-21T08:42:18;8.90;99.90
2543;DHT22;1116;51.502;7.414;2023-02-21T08:44:49;8.90;99.90
2543;DHT22;1116;51.502;7.414;2023-02-21T08:47:20;8.90;99.90
2543;DHT22;1116;51.502;7.414;2023-02-21T08:49:51;9.00;99.90
2543;DHT22;1116;51.502;7.414;2023-02-21T08:52:22;9.00;99.90
2543;DHT22;1116;51.502;7.414;2023-02-21T08:54:52;9.00;99.90
2543;DHT22;1116;51.502;7.414;2023-02-21T08:57:26;8.90;99.90
2543;DHT22;1116;51.502;7.414;2023-02-21T08:59:57;8.80;99.90
2543;DHT22;1116;51.502;7.414;2023-02-21T09:02:28;8.80;99.90
2543;DHT22;1116;51.502;7.414;2023-02-21T09:05:00;8.80;99.90
2543;DHT22;1116;51.502;7.414;2023-02-21T09:07:31;8.80;99.90
2543;DHT22;1116;51.502;7.414;2023-02-21T09:10:05;8.80;99.90
2543;DHT22;1116;51.502;7.414;2023-02-21T09:12:43;9.10;99.90
2543;DHT22;1116;51.502;7.414;2023-02-21T09:15:14;8.90;99.90
2543;DHT22;1116;51.502;7.414;2023-02-21T09:17:45;8.80;99.90
2543;DHT22;1116;51.502;7.414;2023-02-21T09:20:20;8.80;99.90
2543;DHT22;1116;51.502;7.414;2023-02-21T09:22:52;8.90;99.90
2543;DHT22;1116;51.502;7.414;2023-02-21T09:25:24;8.90;99.90
2543;DHT22;1116;51.502;7.414;2023-02-21T09:27:57;8.90;99.90
2543;DHT22;1116;51.502;7.414;2023-02-21T09:30:32;8.70;99.90
2543;DHT22;1116;51.502;7.414;2023-02-21T09:33:03;8.80;99.90
2543;DHT22;1116;51.502;7.414;2023-02-21T09:35:33;8.80;99.90
2543;DHT22;1116;51.502;7.414;2023-02-21T09:38:06;8.80;99.90
2543;DHT22;1116;51.502;7.414;2023-02-21T09:40:41;8.90;99.90
2543;DHT22;1116;51.502;7.414;2023-02-21T09:43:18;9.00;99.90
2543;DHT22;1116;51.502;7.414;2023-02-21T09:45:53;8.90;99.90
2543;DHT22;1116;51.502;7.414;2023-02-21T09:48:26;8.90;99.90
2543;DHT22;1116;51.502;7.414;2023-02-21T09:51:00;8.80;99.90
2543;DHT22;1116;51.502;7.414;2023-02-21T09:53:36;8.80;99.90
2543;DHT22;1116;51.502;7.414;2023-02-21T09:56:11;8.80;99.90
2543;DHT22;1116;51.502;7.414;2023-02-21T09:58:46;8.80;99.90
2543;DHT22;1116;51.502;7.414;2023-02-21T10:01:23;9.10;99.90
2543;DHT22;1116;51.502;7.414;2023-02-21T10:04:03;8.90;99.90
2543;DHT22;1116;51.502;7.414;2023-02-21T10:06:53;8.90;99.90
2543;DHT22;1116;51.502;7.414;2023-02-21T10:09:43;8.90;99.90
2543;DHT22;1116;51.502;7.414;2023-02-21T10:12:22;8.90;99.90
2543;DHT22;1116;51.502;7.414;2023-02-21T10:15:18;8.90;99.90
2543;DHT22;1116;51.502;7.414;2023-02-21T10:17:56;8.90;99.90
2543;DHT22;1116;51.502;7.414;2023-02-21T10:20:34;9.00;99.90
2543;DHT22;1116;51.502;7.414;2023-02-21T10:23:14;9.10;99.90
2543;DHT22;1116;51.502;7.414;2023-02-21T10:25:56;9.00;99.90
2543;DHT22;1116;51.502;7.414;2023-02-21T10:28:29;9.00;99.90
2543;DHT22;1116;51.502;7.414;2023-02-21T10:31:07;8.90;99.90
2543;DHT22;1116;51.502;7.414;2023-02-21T10:33:38;8.90;99.90
2543;DHT22;1116;51.502;7.414;2023-02-21T10:36:15;8.90;99.90
2543;DHT22;1116;51.502;7.414;2023-02-21T10:38:53;8.90;99.90
2543;DHT22;1116;51.502;7.414;2023-02-21T10:41:28;9.00;99.90
2543;DHT22;1116;51.502;7.414;2023-02-21T10:44:04;8.70;99.90
2543;DHT22;1116;51.502;7.414;2023-02-21T10:46:43;9.00;99.90
2543;DHT22;1116;51.502;7.414;2023-02-21T10:49:24;9.10;99.90
2543;DHT22;1116;51.502;7.414;2023-02-21T10:52:08;9.10;99.90
2543;DHT22;1116;51.502;7.414;2023-02-21T10:54:39;9.20;99.90
2543;DHT22;1116;51.502;7.414;2023-02-21T10:57:15;9.30;99.90
2543;DHT22;1116;51.502;7.414;2023-02-21T10:59:47;9.30;99.90
2543;DHT22;1116;51.502;7.414;2023-02-21T11:02:29;9.30;99.90
2543;DHT22;1116;51.502;7.414;2023-02-21T11:05:11;9.40;99.90
2543;DHT22;1116;51.502;7.414;2023-02-21T11:07:56;9.80;99.90
2543;DHT22;1116;51.502;7.414;2023-02-21T11:10:30;9.40;99.90
2543;DHT22;1116;51.502;7.414;2023-02-21T11:13:05;9.50;99.90
2543;DHT22;1116;51.502;7.414;2023-02-21T11:15:36;9.50;99.90
2543;DHT22;1116;51.502;7.414;2023-02-21T11:18:20;9.60;99.90
2543;DHT22;1116;51.502;7.414;2023-02-21T11:20:52;9.60;99.90
2543;DHT22;1116;51.502;7.414;2023-02-21T11:23:25;9.60;99.90
2543;DHT22;1116;51.502;7.414;2023-02-21T11:54:29;9.70;99.90
2543;DHT22;1116;51.502;7.414;2023-02-21T11:57:03;9.80;99.90
2543;DHT22;1116;51.502;7.414;2023-02-21T11:59:44;9.80;99.90
2543;DHT22;1116;51.502;7.414;2023-02-21T12:02:30;10.40;99.90
2543;DHT22;1116;51.502;7.414;2023-02-21T12:05:18;9.90;99.90
2543;DHT22;1116;51.502;7.414;2023-02-21T12:10:50;10.00;99.90
2543;DHT22;1116;51.502;7.414;2023-02-21T12:13:33;10.00;99.90
2543;DHT22;1116;51.502;7.414;2023-02-21T12:16:12;10.10;99.90
2543;DHT22;1116;51.502;7.414;2023-02-21T12:19:05;10.20;99.90
2543;DHT22;1116;51.502;7.414;2023-02-21T12:22:02;10.20;99.90
2543;DHT22;1116;51.502;7.414;2023-02-21T12:24:57;10.30;99.90
2543;DHT22;1116;51.502;7.414;2023-02-21T12:27:35;10.30;99.90
2543;DHT22;1116;51.502;7.414;2023-02-21T12:30:28;10.30;99.90
2543;DHT22;1116;51.502;7.414;2023-02-21T12:33:15;10.40;99.90
2543;DHT22;1116;51.502;7.414;2023-02-21T12:38:59;10.30;99.90
2543;DHT22;1116;51.502;7.414;2023-02-21T12:41:41;10.40;99.90
2543;DHT22;1116;51.502;7.414;2023-02-21T12:44:18;10.50;99.90
2543;DHT22;1116;51.502;7.414;2023-02-21T12:46:54;10.50;99.90
2543;DHT22;1116;51.502;7.414;2023-02-21T12:49:41;10.50;99.90
2543;DHT22;1116;51.502;7.414;2023-02-21T12:52:22;10.50;99.90
2543;DHT22;1116;51.502;7.414;2023-02-21T12:54:58;10.50;99.90
2543;DHT22;1116;51.502;7.414;2023-02-21T12:57:35;10.50;99.90
2543;DHT22;1116;51.502;7.414;2023-02-21T13:00:15;10.60;99.90
2543;DHT22;1116;51.502;7.414;2023-02-21T13:02:57;10.60;99.90
2543;DHT22;1116;51.502;7.414;2023-02-21T13:05:36;10.70;99.90
2543;DHT22;1116;51.502;7.414;2023-02-21T13:08:16;10.60;99.90
2543;DHT22;1116;51.502;7.414;2023-02-21T13:10:52;10.70;99.90
2543;DHT22;1116;51.502;7.414;2023-02-21T13:13:28;10.80;99.90
2543;DHT22;1116;51.502;7.414;2023-02-21T13:16:01;10.70;99.90
2543;DHT22;1116;51.502;7.414;2023-02-21T13:18:45;10.70;99.90
2543;DHT22;1116;51.502;7.414;2023-02-21T13:21:35;10.70;99.90
2543;DHT22;1116;51.502;7.414;2023-02-21T13:24:42;10.80;99.90
2543;DHT22;1116;51.502;7.414;2023-02-21T13:30:45;10.90;99.90
2543;DHT22;1116;51.502;7.414;2023-02-21T13:33:27;10.80;99.90
2543;DHT22;1116;51.502;7.414;2023-02-21T13:36:18;11.10;99.90
2543;DHT22;1116;51.502;7.414;2023-02-21T13:39:10;11.00;99.90
2543;DHT22;1116;51.502;7.414;2023-02-21T13:44:49;11.00;99.90
2543;DHT22;1116;51.502;7.414;2023-02-21T13:47:21;11.00;99.90
2543;DHT22;1116;51.502;7.414;2023-02-21T13:53:13;11.00;99.90
2543;DHT22;1116;51.502;7.414;2023-02-21T13:58:51;10.90;99.90
2543;DHT22;1116;51.502;7.414;2023-02-21T14:01:47;10.90;99.90
2543;DHT22;1116;51.502;7.414;2023-02-21T14:07:47;10.80;99.90
2543;DHT22;1116;51.502;7.414;2023-02-21T14:10:27;10.80;99.90
2543;DHT22;1116;51.502;7.414;2023-02-21T14:13:02;10.80;99.90
2543;DHT22;1116;51.502;7.414;2023-02-21T14:15:43;10.70;99.90
2543;DHT22;1116;51.502;7.414;2023-02-21T14:18:25;10.70;99.90
2543;DHT22;1116;51.502;7.414;2023-02-21T14:20:59;10.60;99.90
2543;DHT22;1116;51.502;7.414;2023-02-21T14:23:41;10.60;99.90
2543;DHT22;1116;51.502;7.414;2023-02-21T14:26:37;10.70;99.90
2543;DHT22;1116;51.502;7.414;2023-02-21T14:29:14;10.70;99.90
2543;DHT22;1116;51.502;7.414;2023-02-21T14:31:54;10.70;99.90
2543;DHT22;1116;51.502;7.414;2023-02-21T14:34:35;10.60;99.90
2543;DHT22;1116;51.502;7.414;2023-02-21T14:37:19;10.60;99.90
2543;DHT22;1116;51.502;7.414;2023-02-21T14:39:53;10.70;99.90
2543;DHT22;1116;51.502;7.414;2023-02-21T14:42:42;10.60;99.90
2543;DHT22;1116;51.502;7.414;2023-02-21T14:45:24;10.70;99.90
2543;DHT22;1116;51.502;7.414;2023-02-21T14:48:37;10.70;99.90
2543;DHT22;1116;51.502;7.414;2023-02-21T14:51:46;10.80;99.90
2543;DHT22;1116;51.502;7.414;2023-02-21T15:00:46;10.30;99.90
2543;DHT22;1116;51.502;7.414;2023-02-21T15:03:33;10.70;99.90
2543;DHT22;1116;51.502;7.414;2023-02-21T15:06:07;10.60;99.90
2543;DHT22;1116;51.502;7.414;2023-02-21T15:08:47;10.60;99.90
2543;DHT22;1116;51.502;7.414;2023-02-21T15:11:24;10.60;99.90
2543;DHT22;1116;51.502;7.414;2023-02-21T15:14:13;10.80;99.90
2543;DHT22;1116;51.502;7.414;2023-02-21T15:16:52;10.50;99.90
2543;DHT22;1116;51.502;7.414;2023-02-21T15:19:29;10.40;99.90
2543;DHT22;1116;51.502;7.414;2023-02-21T15:22:17;10.40;99.90
2543;DHT22;1116;51.502;7.414;2023-02-21T15:25:01;10.40;99.90
2543;DHT22;1116;51.502;7.414;2023-02-21T15:27:58;10.40;99.90
2543;DHT22;1116;51.502;7.414;2023-02-21T15:30:38;10.50;99.90
2543;DHT22;1116;51.502;7.414;2023-02-21T15:33:18;10.50;99.90
2543;DHT22;1116;51.502;7.414;2023-02-21T15:35:58;10.40;99.90
2543;DHT22;1116;51.502;7.414;2023-02-21T15:38:32;10.40;99.90
2543;DHT22;1116;51.502;7.414;2023-02-21T15:41:14;10.70;99.90
2543;DHT22;1116;51.502;7.414;2023-02-21T15:43:54;10.50;99.90
2543;DHT22;1116;51.502;7.414;2023-02-21T15:46:39;10.40;99.90
2543;DHT22;1116;51.502;7.414;2023-02-21T15:49:17;10.40;99.90
2543;DHT22;1116;51.502;7.414;2023-02-21T15:51:52;10.90;99.90
2543;DHT22;1116;51.502;7.414;2023-02-21T15:54:28;10.50;99.90
2543;DHT22;1116;51.502;7.414;2023-02-21T15:57:11;10.40;99.90
2543;DHT22;1116;51.502;7.414;2023-02-21T15:59:46;10.50;99.90
2543;DHT22;1116;51.502;7.414;2023-02-21T16:02:23;10.50;99.90
2543;DHT22;1116;51.502;7.414;2023-02-21T16:04:58;10.50;99.90
2543;DHT22;1116;51.502;7.414;2023-02-21T16:07:38;10.40;99.90
2543;DHT22;1116;51.502;7.414;2023-02-21T16:10:13;10.40;99.90
2543;DHT22;1116;51.502;7.414;2023-02-21T16:12:46;10.50;99.90
2543;DHT22;1116;51.502;7.414;2023-02-21T16:15:48;10.40;99.90
2543;DHT22;1116;51.502;7.414;2023-02-21T16:18:19;10.40;99.90
2543;DHT22;1116;51.502;7.414;2023-02-21T16:20:58;10.80;99.90
2543;DHT22;1116;51.502;7.414;2023-02-21T16:23:41;10.50;99.90
2543;DHT22;1116;51.502;7.414;2023-02-21T16:26:42;10.60;99.90
2543;DHT22;1116;51.502;7.414;2023-02-21T16:29:55;10.50;99.90
2543;DHT22;1116;51.502;7.414;2023-02-21T16:32:32;10.50;99.90
2543;DHT22;1116;51.502;7.414;2023-02-21T16:35:21;10.40;99.90
2543;DHT22;1116;51.502;7.414;2023-02-21T16:37:56;10.40;99.90
2543;DHT22;1116;51.502;7.414;2023-02-21T16:40:31;10.40;99.90
2543;DHT22;1116;51.502;7.414;2023-02-21T16:43:14;10.40;99.90
2543;DHT22;1116;51.502;7.414;2023-02-21T16:45:55;10.40;99.90
2543;DHT22;1116;51.502;7.414;2023-02-21T16:48:30;10.40;99.90
2543;DHT22;1116;51.502;7.414;2023-02-21T16:51:14;10.80;99.90
2543;DHT22;1116;51.502;7.414;2023-02-21T16:53:45;10.40;99.90
2543;DHT22;1116;51.502;7.414;2023-02-21T16:56:19;10.40;99.90
2543;DHT22;1116;51.502;7.414;2023-02-21T16:58:53;10.30;99.90
2543;DHT22;1116;51.502;7.414;2023-02-21T17:01:30;10.20;99.90
2543;DHT22;1116;51.502;7.414;2023-02-21T17:04:14;10.30;99.90
2543;DHT22;1116;51.502;7.414;2023-02-21T17:06:51;10.30;99.90
2543;DHT22;1116;51.502;7.414;2023-02-21T17:09:32;10.20;99.90
2543;DHT22;1116;51.502;7.414;2023-02-21T17:12:13;10.10;99.90
2543;DHT22;1116;51.502;7.414;2023-02-21T17:14:55;10.20;99.90
2543;DHT22;1116;51.502;7.414;2023-02-21T17:17:34;10.20;99.90
2543;DHT22;1116;51.502;7.414;2023-02-21T17:20:07;10.20;99.90
2543;DHT22;1116;51.502;7.414;2023-02-21T17:22:41;10.20;99.90
2543;DHT22;1116;51.502;7.414;2023-02-21T17:25:25;10.20;99.90
2543;DHT22;1116;51.502;7.414;2023-02-21T17:28:04;10.10;99.90
2543;DHT22;1116;51.502;7.414;2023-02-21T17:30:35;10.20;99.90
2543;DHT22;1116;51.502;7.414;2023-02-21T17:33:06;10.20;99.90
2543;DHT22;1116;51.502;7.414;2023-02-21T17:35:40;10.10;99.90
2543;DHT22;1116;51.502;7.414;2023-02-21T17:38:11;10.10;99.90
2543;DHT22;1116;51.502;7.414;2023-02-21T17:40:42;10.20;99.90
2543;DHT22;1116;51.502;7.414;2023-02-21T17:43:19;10.20;99.90
2543;DHT22;1116;51.502;7.414;2023-02-21T17:45:49;10.20;99.90
2543;DHT22;1116;51.502;7.414;2023-02-21T17:48:24;10.10;99.90
2543;DHT22;1116;51.502;7.414;2023-02-21T17:51:19;10.00;99.90
2543;DHT22;1116;51.502;7.414;2023-02-21T17:53:58;10.10;99.90
2543;DHT22;1116;51.502;7.414;2023-02-21T17:56:29;10.10;99.90
2543;DHT22;1116;51.502;7.414;2023-02-21T17:59:02;10.20;99.90
2543;DHT22;1116;51.502;7.414;2023-02-21T18:01:33;10.10;99.90
2543;DHT22;1116;51.502;7.414;2023-02-21T18:04:05;10.10;99.90
2543;DHT22;1116;51.502;7.414;2023-02-21T18:06:37;10.20;99.90
2543;DHT22;1116;51.502;7.414;2023-02-21T18:09:09;10.20;99.90
2543;DHT22;1116;51.502;7.414;2023-02-21T18:11:39;10.20;99.90
2543;DHT22;1116;51.502;7.414;2023-02-21T18:14:13;10.20;99.90
2543;DHT22;1116;51.502;7.414;2023-02-21T18:16:44;10.30;99.90
2543;DHT22;1116;51.502;7.414;2023-02-21T18:19:15;10.20;99.90
2543;DHT22;1116;51.502;7.414;2023-02-21T18:21:46;10.30;99.90
2543;DHT22;1116;51.502;7.414;2023-02-21T18:24:17;10.30;99.90